Time;durP1;ratioP1;P1;durP2;ratioP2;P2;SDS_P1;SDS_P2;PMS_P1;PMS_P2;Temp;Humidity;BMP_temperature;BMP_pressure;BME280_temperature;BME280_humidity;BME280_pressure;Samples;Min_cycle;Max_cycle;Signal;HPM_P1;HPM_P2
2022/06/23 00:01:57;;;;;;;20.38;11.20;;;23.70;99.90;;;;;;5052166;28;20387;-68
2022/06/23 00:05:10;;;;;;;18.80;12.18;;;23.70;99.90;;;;;;5051893;28;20055;-68
2022/06/23 00:08:15;;;;;;;15.52;11.63;;;23.60;99.90;;;;;;5050742;28;20064;-69
2022/06/23 00:11:23;;;;;;;14.25;11.20;;;23.60;99.90;;;;;;5051826;28;20044;-69
2022/06/23 00:14:28;;;;;;;16.48;11.68;;;23.50;99.90;;;;;;5051914;28;20060;-69
2022/06/23 00:17:55;;;;;;;16.02;11.50;;;23.50;99.90;;;;;;5051211;28;20048;-69
2022/06/23 00:21:04;;;;;;;14.90;12.15;;;23.50;99.90;;;;;;5053786;28;20044;-68
2022/06/23 00:24:19;;;;;;;15.65;11.63;;;23.60;99.90;;;;;;5051906;28;20056;-68
2022/06/23 00:27:30;;;;;;;18.38;12.30;;;23.60;99.90;;;;;;5051372;28;20055;-68
2022/06/23 00:30:41;;;;;;;16.92;11.73;;;23.60;99.90;;;;;;5051601;28;20044;-68
2022/06/23 00:33:45;;;;;;;14.15;11.10;;;23.50;99.90;;;;;;5051631;28;20059;-68
2022/06/23 00:37:13;;;;;;;17.52;11.75;;;23.40;99.90;;;;;;5050897;28;20049;-68
2022/06/23 00:40:23;;;;;;;15.25;11.98;;;23.30;99.90;;;;;;5051255;28;20052;-68
2022/06/23 00:43:28;;;;;;;17.15;11.45;;;23.30;99.90;;;;;;5051113;28;20040;-68
2022/06/23 00:46:43;;;;;;;16.70;12.52;;;23.20;99.90;;;;;;5050571;28;20392;-68
2022/06/23 00:50:01;;;;;;;15.68;12.30;;;23.20;99.90;;;;;;5051097;28;20060;-68
2022/06/23 00:53:11;;;;;;;16.95;12.90;;;23.00;99.90;;;;;;5050785;28;20052;-68
2022/06/23 00:56:50;;;;;;;19.08;13.38;;;22.80;99.90;;;;;;5050497;28;20048;-69
2022/06/23 01:00:14;;;;;;;18.15;13.80;;;22.70;99.90;;;;;;5050932;28;20115;-68
2022/06/23 01:03:27;;;;;;;24.85;16.13;;;22.50;99.90;;;;;;5050620;28;20051;-68
2022/06/23 01:06:45;;;;;;;24.80;16.70;;;22.30;99.90;;;;;;5050237;28;20391;-68
2022/06/23 01:09:58;;;;;;;22.90;15.38;;;22.20;99.90;;;;;;5050343;28;20056;-68
2022/06/23 01:13:13;;;;;;;18.05;14.32;;;22.10;99.90;;;;;;5050479;28;20056;-68
2022/06/23 01:16:26;;;;;;;21.15;13.48;;;22.20;99.90;;;;;;5050351;28;20044;-68
2022/06/23 01:19:45;;;;;;;22.13;13.75;;;22.30;99.90;;;;;;5050158;28;20499;-68
2022/06/23 01:22:49;;;;;;;19.70;13.02;;;22.30;99.90;;;;;;5050366;28;20048;-68
2022/06/23 01:26:06;;;;;;;19.35;13.38;;;22.30;99.90;;;;;;5050118;28;20039;-68
2022/06/23 01:29:37;;;;;;;19.67;13.10;;;22.30;99.90;;;;;;5050206;28;20043;-67
2022/06/23 01:33:04;;;;;;;24.35;14.00;;;22.40;99.90;;;;;;5050302;28;20036;-68
2022/06/23 01:36:35;;;;;;;17.80;13.73;;;22.30;99.90;;;;;;5050186;28;20041;-68
2022/06/23 01:39:53;;;;;;;21.05;14.68;;;22.20;99.90;;;;;;5050321;28;20052;-68
2022/06/23 01:43:06;;;;;;;20.80;14.93;;;22.00;99.90;;;;;;5050021;28;20052;-68
2022/06/23 01:46:19;;;;;;;20.27;15.35;;;22.10;99.90;;;;;;5049779;28;20499;-68
2022/06/23 01:49:29;;;;;;;21.58;14.73;;;22.10;99.90;;;;;;5050071;28;20059;-68
2022/06/23 01:52:33;;;;;;;16.58;14.60;;;22.00;99.90;;;;;;5050342;28;20036;-68
2022/06/23 01:56:12;;;;;;;27.27;16.88;;;22.00;99.90;;;;;;5050107;28;20040;-68
2022/06/23 01:59:38;;;;;;;21.73;15.48;;;22.00;99.90;;;;;;5047470;28;20036;-69
2022/06/23 02:03:10;;;;;;;17.73;14.23;;;22.00;99.90;;;;;;5050049;28;20051;-68
2022/06/23 02:06:26;;;;;;;23.38;16.13;;;22.00;99.90;;;;;;5050052;28;20040;-69
2022/06/23 02:09:40;;;;;;;24.20;15.18;;;22.00;99.90;;;;;;5050081;28;20044;-68
2022/06/23 02:12:59;;;;;;;22.15;15.50;;;21.90;99.90;;;;;;5049993;28;20052;-68
2022/06/23 02:16:32;;;;;;;23.23;16.38;;;21.90;99.90;;;;;;5049835;28;20044;-69
2022/06/23 02:20:01;;;;;;;21.48;15.40;;;21.90;99.90;;;;;;5049800;28;20052;-68
2022/06/23 02:23:22;;;;;;;29.15;17.05;;;21.80;99.90;;;;;;5049967;28;20411;-68
2022/06/23 02:26:54;;;;;;;24.08;15.40;;;21.80;99.90;;;;;;5049512;28;20056;-68
2022/06/23 02:30:05;;;;;;;20.88;16.10;;;21.70;99.90;;;;;;5049845;28;20052;-68
2022/06/23 02:33:38;;;;;;;20.50;15.55;;;21.70;99.90;;;;;;5053943;28;20055;-68
2022/06/23 02:36:42;;;;;;;18.73;14.55;;;21.80;99.90;;;;;;5053303;28;20387;-68
2022/06/23 02:39:53;;;;;;;19.83;15.25;;;21.70;99.90;;;;;;5053540;28;20044;-68
2022/06/23 02:43:14;;;;;;;21.05;15.65;;;21.80;99.90;;;;;;5053292;28;20040;-69
2022/06/23 02:46:43;;;;;;;21.67;15.25;;;21.80;99.90;;;;;;5053212;28;20040;-68
2022/06/23 02:49:59;;;;;;;20.15;15.32;;;21.70;99.90;;;;;;5052413;28;20040;-68
2022/06/23 02:53:15;;;;;;;20.50;15.45;;;21.70;99.90;;;;;;5053265;28;20052;-68
2022/06/23 02:56:45;;;;;;;19.20;16.67;;;21.60;99.90;;;;;;5053126;28;20119;-68
2022/06/23 03:00:02;;;;;;;24.35;15.38;;;21.60;99.90;;;;;;5053146;28;20044;-68
2022/06/23 03:03:28;;;;;;;15.60;13.93;;;21.50;99.90;;;;;;5052956;28;20048;-68
2022/06/23 03:06:38;;;;;;;22.48;13.73;;;21.40;99.90;;;;;;5053042;28;20043;-68
2022/06/23 03:09:47;;;;;;;19.27;13.65;;;21.40;99.90;;;;;;5052989;28;20047;-68
2022/06/23 03:13:33;;;;;;;18.15;14.10;;;21.40;99.90;;;;;;5052529;28;20048;-68
2022/06/23 03:16:42;;;;;;;17.42;14.40;;;21.40;99.90;;;;;;5052104;28;20044;-68
2022/06/23 03:19:58;;;;;;;19.45;15.60;;;21.40;99.90;;;;;;5052725;28;20044;-68
2022/06/23 03:23:21;;;;;;;28.23;16.08;;;21.40;99.90;;;;;;5052657;28;20503;-68
2022/06/23 03:26:55;;;;;;;19.30;13.82;;;21.30;99.90;;;;;;5052181;28;20044;-69
2022/06/23 03:30:13;;;;;;;23.92;15.63;;;21.00;99.90;;;;;;5052773;28;20052;-68
2022/06/23 03:33:21;;;;;;;21.95;16.13;;;20.80;99.90;;;;;;5052498;28;20040;-68
2022/06/23 03:36:39;;;;;;;20.92;16.45;;;20.60;99.90;;;;;;5052376;28;20051;-68
2022/06/23 03:43:31;;;;;;;24.50;16.17;;;20.40;99.90;;;;;;5051065;28;20055;-69
2022/06/23 03:46:57;;;;;;;26.65;17.67;;;20.30;99.90;;;;;;5052180;28;20040;-69
2022/06/23 03:50:14;;;;;;;24.30;16.27;;;20.10;99.90;;;;;;5052771;28;20040;-68
2022/06/23 03:53:45;;;;;;;20.60;16.38;;;20.10;99.90;;;;;;5052132;28;20044;-68
2022/06/23 03:56:56;;;;;;;25.83;17.35;;;20.00;99.90;;;;;;5051811;28;20534;-68
2022/06/23 04:00:04;;;;;;;19.00;16.08;;;20.00;99.90;;;;;;5051982;28;20349;-69
2022/06/23 04:03:21;;;;;;;19.83;14.93;;;20.00;99.90;;;;;;5052036;28;20040;-67
2022/06/23 04:06:52;;;;;;;18.25;14.63;;;20.10;99.90;;;;;;5051605;28;20359;-68
2022/06/23 04:10:04;;;;;;;19.08;13.90;;;20.20;99.90;;;;;;5052033;28;20048;-69
2022/06/23 04:13:23;;;;;;;18.30;14.48;;;20.30;99.90;;;;;;5051399;28;20040;-68
2022/06/23 04:16:31;;;;;;;19.95;14.57;;;20.40;99.90;;;;;;5051181;28;20052;-68
2022/06/23 04:19:36;;;;;;;21.30;13.45;;;20.50;99.90;;;;;;5051559;28;20055;-68
2022/06/23 04:22:52;;;;;;;15.68;13.35;;;20.40;99.90;;;;;;5051647;28;20163;-68
2022/06/23 04:26:11;;;;;;;27.38;14.68;;;20.40;99.90;;;;;;5051543;28;20052;-68
2022/06/23 04:29:34;;;;;;;20.30;14.20;;;20.40;99.90;;;;;;5051167;28;20064;-68
2022/06/23 04:32:38;;;;;;;24.50;15.55;;;20.40;99.90;;;;;;5048061;28;20044;-69
2022/06/23 04:35:53;;;;;;;21.85;13.75;;;20.50;99.90;;;;;;5051471;28;20487;-69
2022/06/23 04:39:22;;;;;;;18.55;14.70;;;20.70;99.90;;;;;;5051077;28;20043;-68
2022/06/23 04:42:27;;;;;;;17.27;13.90;;;21.00;99.90;;;;;;5050946;28;20040;-69
2022/06/23 04:45:31;;;;;;;17.48;13.38;;;21.30;99.90;;;;;;5050563;28;20257;-69
2022/06/23 04:48:55;;;;;;;17.80;13.45;;;21.60;99.90;;;;;;5051290;28;20040;-68
2022/06/23 04:52:12;;;;;;;16.85;13.65;;;21.90;99.90;;;;;;5051002;28;20059;-69
2022/06/23 04:55:28;;;;;;;15.25;12.25;;;21.90;99.90;;;;;;5050456;28;20392;-69
2022/06/23 04:58:35;;;;;;;15.90;12.27;;;21.90;99.90;;;;;;5051108;28;20040;-69
2022/06/23 05:01:43;;;;;;;16.73;12.43;;;22.10;99.90;;;;;;5050650;28;20056;-69
2022/06/23 05:05:04;;;;;;;14.52;11.50;;;22.50;99.90;;;;;;5050673;28;20399;-68
2022/06/23 05:08:16;;;;;;;13.47;10.30;;;23.40;99.90;;;;;;5050352;28;20379;-68
2022/06/23 05:11:35;;;;;;;18.23;11.25;;;24.60;99.90;;;;;;5050641;28;20614;-68
2022/06/23 05:14:55;;;;;;;15.98;10.70;;;25.60;99.90;;;;;;5050640;28;20112;-68
2022/06/23 05:18:05;;;;;;;13.38;10.50;;;25.80;99.90;;;;;;5050006;28;20391;-68
2022/06/23 05:21:17;;;;;;;15.05;10.20;;;25.90;99.90;;;;;;5050379;28;20400;-68
2022/06/23 05:24:26;;;;;;;13.90;10.43;;;25.80;99.90;;;;;;5050681;28;20048;-69
2022/06/23 05:27:33;;;;;;;13.48;10.02;;;25.50;99.90;;;;;;5050406;28;20106;-69
2022/06/23 05:30:47;;;;;;;14.55;10.80;;;24.80;99.90;;;;;;5049938;28;20495;-69
2022/06/23 05:33:54;;;;;;;12.65;9.55;;;24.20;99.90;;;;;;5051082;28;20048;-69
2022/06/23 05:37:23;;;;;;;16.88;10.82;;;24.80;99.90;;;;;;5049347;28;20059;-68
2022/06/23 05:40:33;;;;;;;16.20;9.52;;;25.30;99.90;;;;;;5050032;28;20494;-70
2022/06/23 05:43:40;;;;;;;18.40;9.68;;;25.80;99.90;;;;;;5050117;28;20040;-70
2022/06/23 05:46:47;;;;;;;12.85;9.15;;;26.10;99.90;;;;;;5049735;28;20502;-70
2022/06/23 05:49:56;;;;;;;16.48;9.55;;;26.60;99.90;;;;;;5050206;28;20060;-68
2022/06/23 05:53:27;;;;;;;18.92;9.65;;;26.60;99.90;;;;;;5049876;28;20526;-69
2022/06/23 05:56:52;;;;;;;21.13;10.05;;;26.40;99.90;;;;;;5049805;28;20047;-68
2022/06/23 06:00:14;;;;;;;16.27;9.80;;;26.30;99.90;;;;;;5049752;28;20044;-69
2022/06/23 06:03:23;;;;;;;13.00;8.82;;;26.30;99.90;;;;;;5049802;28;20574;-69
2022/06/23 06:06:28;;;;;;;10.27;8.50;;;26.60;99.90;;;;;;5050866;28;20052;-69
2022/06/23 06:09:36;;;;;;;12.13;8.82;;;27.00;99.90;;;;;;5053943;28;20040;-69
2022/06/23 06:12:42;;;;;;;15.32;9.50;;;27.50;99.90;;;;;;5053591;28;20052;-69
2022/06/23 06:15:54;;;;;;;13.93;8.52;;;27.90;99.90;;;;;;5053908;28;20495;-69
2022/06/23 06:18:58;;;;;;;;;;;28.70;99.90;;;;;;5050929;28;20075;-69
2022/06/23 06:22:31;;;;;;;19.52;8.15;;;29.40;99.90;;;;;;5052984;28;19916;-68
2022/06/23 06:25:39;;;;;;;10.23;7.47;;;28.60;99.80;;;;;;5039307;28;20063;-68
2022/06/23 06:28:44;;;;;;;14.82;8.63;;;29.10;99.90;;;;;;5053505;28;20055;-69
2022/06/23 06:31:52;;;;;;;15.18;8.07;;;29.60;99.10;;;;;;5053061;28;20391;-68
2022/06/23 06:35:13;;;;;;;13.00;7.20;;;30.40;98.10;;;;;;5052997;28;20047;-69
2022/06/23 06:38:18;;;;;;;13.35;7.63;;;31.50;96.00;;;;;;5052200;28;20044;-69
2022/06/23 06:41:21;;;;;;;15.70;7.93;;;32.20;94.90;;;;;;5052982;28;20044;-69
2022/06/23 06:44:25;;;;;;;10.50;6.68;;;31.50;94.00;;;;;;5052407;28;20503;-69
2022/06/23 06:47:36;;;;;;;10.70;7.97;;;31.50;94.30;;;;;;5052384;28;20392;-68
2022/06/23 06:50:44;;;;;;;14.60;7.87;;;31.70;93.60;;;;;;5052789;28;20044;-70
2022/06/23 06:53:56;;;;;;;14.60;7.63;;;29.20;95.80;;;;;;5052956;28;20279;-68
2022/06/23 06:57:05;;;;;;;10.38;7.38;;;29.50;95.70;;;;;;5053068;28;20064;-69
2022/06/23 07:00:23;;;;;;;12.95;8.73;;;29.70;95.40;;;;;;5037059;28;20052;-68
2022/06/23 07:03:29;;;;;;;17.52;8.27;;;28.80;95.40;;;;;;5053051;28;20036;-69
2022/06/23 07:06:56;;;;;;;12.32;8.18;;;28.50;96.80;;;;;;5052003;28;20044;-68
2022/06/23 07:10:07;;;;;;;10.65;7.55;;;29.10;96.40;;;;;;5039493;28;20048;-68
2022/06/23 07:13:39;;;;;;;12.65;7.93;;;30.00;95.90;;;;;;5053575;28;20044;-68
2022/06/23 07:17:01;;;;;;;10.98;8.00;;;30.50;95.50;;;;;;5052554;28;20036;-69
2022/06/23 07:20:16;;;;;;;19.58;7.63;;;30.40;94.70;;;;;;5053772;28;20044;-68
2022/06/23 07:23:37;;;;;;;11.38;7.28;;;31.10;94.10;;;;;;5041122;28;20048;-68
2022/06/23 07:27:05;;;;;;;12.70;7.38;;;31.30;93.30;;;;;;5051995;28;20043;-69
2022/06/23 07:30:15;;;;;;;11.75;7.78;;;30.60;93.70;;;;;;5042734;28;20052;-69
2022/06/23 07:33:25;;;;;;;10.93;7.40;;;30.10;94.90;;;;;;5052402;28;20036;-69
2022/06/23 07:37:09;;;;;;;8.90;6.90;;;30.90;93.90;;;;;;5051503;28;20032;-69
2022/06/23 07:40:17;;;;;;;10.20;6.93;;;32.10;93.50;;;;;;5038192;28;20052;-68
2022/06/23 07:43:44;;;;;;;11.07;7.13;;;33.40;92.70;;;;;;5035630;28;20403;-68
2022/06/23 07:46:48;;;;;;;9.45;6.35;;;32.40;92.80;;;;;;5051628;28;20052;-70
2022/06/23 07:49:51;;;;;;;10.85;7.53;;;33.30;91.90;;;;;;5031524;28;20044;-69
2022/06/23 07:52:57;;;;;;;13.45;7.00;;;33.20;91.50;;;;;;5041062;28;20376;-68
2022/06/23 07:56:03;;;;;;;12.85;7.03;;;33.70;91.30;;;;;;5046708;28;20052;-69
2022/06/23 07:59:14;;;;;;;8.70;6.00;;;33.50;91.30;;;;;;5032526;28;20068;-69
2022/06/23 08:02:23;;;;;;;10.30;6.65;;;33.50;90.90;;;;;;5032856;28;20044;-70
2022/06/23 08:05:42;;;;;;;11.50;6.68;;;32.80;91.10;;;;;;5041556;28;20040;-68
2022/06/23 08:08:50;;;;;;;9.23;6.25;;;32.00;91.40;;;;;;5051776;28;20486;-68
2022/06/23 08:19:23;;;;;;;10.73;6.87;;;31.90;91.80;;;;;;5051602;28;20048;-69
2022/06/23 08:22:36;;;;;;;23.38;6.53;;;32.00;91.80;;;;;;5033514;28;20258;-70
2022/06/23 08:25:41;;;;;;;8.13;6.18;;;33.60;90.90;;;;;;5050643;28;20043;-68
2022/06/23 08:28:47;;;;;;;10.43;6.50;;;33.90;89.70;;;;;;5031360;28;20503;-69
2022/06/23 08:31:51;;;;;;;8.60;6.25;;;34.10;90.20;;;;;;5049850;28;20364;-69
2022/06/23 08:35:20;;;;;;;11.73;6.10;;;34.50;88.80;;;;;;5052192;28;20052;-70
2022/06/23 08:38:34;;;;;;;8.65;6.75;;;33.30;89.40;;;;;;5050300;28;20051;-68
2022/06/23 08:41:47;;;;;;;10.50;6.65;;;32.80;89.90;;;;;;5051495;28;20051;-68
2022/06/23 08:45:29;;;;;;;12.65;6.57;;;32.10;90.70;;;;;;5051699;28;20060;-68
2022/06/23 08:48:35;;;;;;;;;;;31.50;90.70;;;;;;5051270;28;20115;-69
2022/06/23 08:51:51;;;;;;;9.50;6.35;;;31.90;89.80;;;;;;5052032;28;19919;-69
2022/06/23 08:55:38;;;;;;;8.13;4.75;;;33.30;89.50;;;;;;5051228;28;20040;-68
2022/06/23 08:58:57;;;;;;;10.20;5.72;;;34.50;84.10;;;;;;4996392;28;20177;-68
2022/06/23 09:02:17;;;;;;;8.88;5.45;;;34.10;80.70;;;;;;5031969;28;20071;-68
2022/06/23 09:05:36;;;;;;;9.57;5.80;;;33.50;82.30;;;;;;5042787;28;20052;-68
2022/06/23 09:09:00;;;;;;;12.80;5.90;;;32.90;84.60;;;;;;5050938;28;20044;-68
2022/06/23 09:12:16;;;;;;;8.43;4.97;;;33.90;83.80;;;;;;5050642;28;20063;-69
2022/06/23 09:15:35;;;;;;;10.02;5.53;;;35.00;82.40;;;;;;5041532;28;20048;-69
2022/06/23 09:19:07;;;;;;;6.28;4.93;;;36.90;79.60;;;;;;5049697;28;20044;-68
2022/06/23 09:22:19;;;;;;;8.35;5.60;;;37.70;78.40;;;;;;5050801;28;20052;-69
2022/06/23 09:26:06;;;;;;;6.75;4.72;;;37.70;77.80;;;;;;5050530;28;20047;-69
2022/06/23 09:29:45;;;;;;;11.18;4.90;;;37.80;77.00;;;;;;5045877;28;20056;-69
2022/06/23 09:33:05;;;;;;;12.40;5.05;;;40.00;74.30;;;;;;5046010;28;20127;-69
2022/06/23 09:36:34;;;;;;;10.38;4.82;;;39.60;73.80;;;;;;5043734;28;20060;-69
2022/06/23 09:40:07;;;;;;;9.48;4.80;;;38.90;74.90;;;;;;5045202;28;20040;-68
2022/06/23 09:43:40;;;;;;;7.55;4.53;;;39.40;74.50;;;;;;5045234;28;20044;-69
2022/06/23 09:47:05;;;;;;;8.70;4.70;;;41.30;72.80;;;;;;5039887;28;20056;-70
2022/06/23 09:50:15;;;;;;;12.93;4.80;;;39.60;72.90;;;;;;5042040;28;20036;-70
2022/06/23 09:53:41;;;;;;;15.05;5.80;;;37.40;75.20;;;;;;5049605;28;20072;-70
2022/06/23 09:57:19;;;;;;;16.33;5.47;;;36.10;76.10;;;;;;5046818;28;20061;-69
2022/06/23 10:00:46;;;;;;;10.95;4.97;;;36.10;76.10;;;;;;5047491;28;20036;-70
2022/06/23 10:04:09;;;;;;;8.60;5.57;;;36.60;76.20;;;;;;5043260;28;20044;-69
2022/06/23 10:07:23;;;;;;;8.65;5.38;;;36.20;76.70;;;;;;5049539;28;20052;-70
2022/06/23 10:11:21;;;;;;;9.25;4.80;;;35.80;76.40;;;;;;5045809;28;20036;-70
2022/06/23 10:14:44;;;;;;;8.43;4.63;;;37.30;76.10;;;;;;4991707;28;20044;-69
2022/06/23 10:18:18;;;;;;;15.43;5.68;;;37.70;75.10;;;;;;5047454;28;20032;-70
2022/06/23 10:21:37;;;;;;;10.80;5.20;;;38.20;74.50;;;;;;5049851;28;20032;-70
2022/06/23 10:24:58;;;;;;;10.15;5.43;;;38.70;74.10;;;;;;5048952;28;20048;-69
2022/06/23 10:28:26;;;;;;;10.25;5.32;;;38.30;74.80;;;;;;5047342;28;20064;-69
2022/06/23 10:31:46;;;;;;;9.05;4.50;;;38.40;73.30;;;;;;5045548;28;20544;-68
2022/06/23 10:35:11;;;;;;;9.15;5.63;;;38.20;74.20;;;;;;5048361;28;20052;-68
2022/06/23 10:38:22;;;;;;;12.93;5.20;;;37.90;74.90;;;;;;5045050;28;20040;-69
2022/06/23 10:41:48;;;;;;;9.73;5.70;;;37.30;74.80;;;;;;5048927;28;20174;-67
2022/06/23 10:45:11;;;;;;;9.73;5.15;;;36.90;75.50;;;;;;5044382;28;20043;-68
2022/06/23 10:48:18;;;;;;;8.50;5.22;;;36.30;76.90;;;;;;5041901;28;20032;-67
2022/06/23 10:51:48;;;;;;;16.83;5.70;;;35.70;77.30;;;;;;5045198;28;20036;-68
2022/06/23 10:55:07;;;;;;;14.75;6.10;;;35.20;78.60;;;;;;5050013;28;20044;-68
2022/06/23 10:58:23;;;;;;;12.00;5.82;;;34.80;79.80;;;;;;5052787;28;20411;-70
2022/06/23 11:01:36;;;;;;;20.27;6.38;;;34.20;80.50;;;;;;5050876;28;20411;-70
2022/06/23 11:04:51;;;;;;;11.38;6.53;;;32.90;81.80;;;;;;5052850;28;20683;-71
2022/06/23 11:08:20;;;;;;;13.45;6.55;;;32.60;82.80;;;;;;5050870;28;20483;-70
2022/06/23 11:11:54;;;;;;;15.25;6.40;;;32.40;83.60;;;;;;5051755;28;20497;-70
2022/06/23 11:15:37;;;;;;;15.70;6.47;;;32.50;88.00;;;;;;5044446;28;20396;-70
2022/06/23 11:18:55;;;;;;;12.00;6.55;;;32.50;84.90;;;;;;5045695;28;20412;-70
2022/06/23 11:22:24;;;;;;;12.88;6.78;;;31.80;86.90;;;;;;5047337;28;20048;-70
2022/06/23 11:26:03;;;;;;;21.60;6.65;;;32.30;87.40;;;;;;5048770;28;20044;-69
2022/06/23 11:29:45;;;;;;;10.90;5.63;;;32.60;87.60;;;;;;5034277;28;20396;-69
2022/06/23 11:33:23;;;;;;;14.90;5.50;;;32.70;88.60;;;;;;5048752;28;20036;-70
2022/06/23 11:36:46;;;;;;;14.38;6.10;;;32.50;89.70;;;;;;5037697;28;20044;-69
2022/06/23 11:40:25;;;;;;;13.85;6.57;;;32.40;90.30;;;;;;5048395;28;20507;-69
2022/06/23 11:44:00;;;;;;;15.52;6.80;;;32.20;90.50;;;;;;5046448;28;20383;-70
2022/06/23 11:47:07;;;;;;;10.57;6.03;;;32.10;90.70;;;;;;5050607;28;20040;-70
2022/06/23 11:50:17;;;;;;;13.40;6.10;;;32.30;91.00;;;;;;5042252;28;20063;-70
2022/06/23 11:53:30;;;;;;;17.52;6.75;;;32.50;90.70;;;;;;5041532;28;20040;-71
2022/06/23 11:57:00;;;;;;;11.02;6.07;;;32.70;91.40;;;;;;5049000;28;20044;-70
2022/06/23 12:00:11;;;;;;;12.00;6.20;;;32.60;91.80;;;;;;5050820;28;20051;-70
2022/06/23 12:03:49;;;;;;;17.15;7.03;;;32.40;91.30;;;;;;5045583;28;20502;-70
2022/06/23 12:06:59;;;;;;;15.05;6.50;;;32.30;94.50;;;;;;5043777;28;20040;-71
2022/06/23 12:10:09;;;;;;;11.73;6.82;;;32.10;95.00;;;;;;5044445;28;20036;-72
2022/06/23 12:13:14;;;;;;;17.52;7.10;;;32.00;95.20;;;;;;5051807;28;20684;-71
2022/06/23 12:16:18;;;;;;;10.05;6.25;;;31.90;95.80;;;;;;5052117;28;20490;-72
2022/06/23 12:19:30;;;;;;;14.32;6.63;;;31.90;95.60;;;;;;5052328;28;20044;-71
2022/06/23 12:22:41;;;;;;;12.07;6.13;;;31.80;96.00;;;;;;5047166;28;20125;-71
2022/06/23 12:26:12;;;;;;;10.75;6.63;;;31.80;96.00;;;;;;5045933;28;20048;-71
2022/06/23 12:29:54;;;;;;;14.75;6.75;;;31.80;96.10;;;;;;5043973;28;20151;-72
2022/06/23 12:33:03;;;;;;;14.30;6.68;;;31.70;96.00;;;;;;5049335;28;20036;-70
2022/06/23 12:36:14;;;;;;;13.77;7.22;;;31.40;95.70;;;;;;5046365;28;20044;-71
2022/06/23 12:39:44;;;;;;;13.38;7.35;;;30.70;96.20;;;;;;5050385;28;20039;-70
2022/06/23 12:42:57;;;;;;;12.27;7.10;;;30.30;97.40;;;;;;5047711;28;20151;-70
2022/06/23 12:46:25;;;;;;;18.95;6.95;;;30.20;97.30;;;;;;5045634;28;20060;-70
2022/06/23 12:49:32;;;;;;;16.55;8.00;;;30.00;97.60;;;;;;5044696;28;20052;-70
2022/06/23 12:52:42;;;;;;;12.63;6.30;;;30.00;97.60;;;;;;5047270;28;20055;-70
2022/06/23 12:56:04;;;;;;;16.88;6.50;;;30.10;97.10;;;;;;5046622;28;20048;-70
2022/06/23 12:59:36;;;;;;;17.05;7.10;;;30.40;96.80;;;;;;5049446;28;20044;-70
2022/06/23 13:02:58;;;;;;;14.57;6.95;;;30.70;96.50;;;;;;5034940;28;20042;-71
2022/06/23 13:06:19;;;;;;;16.92;7.13;;;31.00;96.10;;;;;;5045204;28;20048;-71
2022/06/23 13:09:37;;;;;;;15.57;6.10;;;31.10;95.90;;;;;;5041795;28;20040;-70
2022/06/23 13:13:01;;;;;;;17.30;6.32;;;31.20;95.60;;;;;;5045688;28;20044;-70
2022/06/23 13:16:34;;;;;;;13.93;6.68;;;31.30;95.20;;;;;;5046789;28;20115;-70
2022/06/23 13:19:49;;;;;;;16.52;6.70;;;31.60;95.20;;;;;;5049203;28;20391;-70
2022/06/23 13:23:01;;;;;;;17.00;6.25;;;31.80;94.50;;;;;;5047913;28;20036;-71
2022/06/23 13:26:20;;;;;;;15.25;6.43;;;31.80;94.80;;;;;;5047471;28;20052;-71
2022/06/23 13:29:33;;;;;;;17.17;6.72;;;31.90;94.80;;;;;;5044772;28;20044;-70
2022/06/23 13:32:44;;;;;;;14.00;5.88;;;32.20;94.50;;;;;;5044424;28;20064;-70
2022/06/23 13:36:03;;;;;;;20.85;6.78;;;31.90;94.90;;;;;;5044003;28;20047;-70
2022/06/23 13:39:45;;;;;;;13.82;6.53;;;32.10;94.50;;;;;;5047997;28;20063;-70
2022/06/23 13:42:55;;;;;;;19.10;6.80;;;32.00;94.70;;;;;;5047860;28;20048;-70
2022/06/23 13:46:08;;;;;;;17.45;6.10;;;31.70;93.70;;;;;;5048048;28;20048;-70
2022/06/23 13:49:20;;;;;;;23.92;7.32;;;31.40;94.50;;;;;;5046489;28;20044;-70
2022/06/23 13:52:35;;;;;;;25.92;6.90;;;31.30;94.40;;;;;;5046569;28;20032;-70
2022/06/23 13:55:58;;;;;;;22.42;7.68;;;31.30;94.00;;;;;;5030444;28;20503;-69
2022/06/23 13:59:20;;;;;;;22.00;6.72;;;31.20;94.70;;;;;;5041137;28;20056;-69
2022/06/23 14:02:43;;;;;;;20.65;7.72;;;31.00;94.50;;;;;;5035834;28;20399;-69
2022/06/23 14:06:04;;;;;;;24.40;8.35;;;30.70;95.10;;;;;;5047036;28;20040;-69
2022/06/23 14:09:28;;;;;;;29.27;8.63;;;30.10;95.70;;;;;;5037348;28;20299;-70
2022/06/23 14:12:58;;;;;;;25.25;7.85;;;30.10;95.50;;;;;;5047454;28;20032;-70
2022/06/23 14:16:16;;;;;;;22.33;7.13;;;30.50;95.30;;;;;;5047034;28;20446;-69
2022/06/23 14:19:57;;;;;;;21.60;7.03;;;31.30;94.00;;;;;;5043035;28;20040;-69
2022/06/23 14:23:14;;;;;;;22.45;6.00;;;32.10;93.10;;;;;;5021490;28;20139;-69
2022/06/23 14:26:26;;;;;;;25.45;7.18;;;33.00;92.30;;;;;;5044439;28;20044;-68
2022/06/23 14:29:40;;;;;;;23.90;6.70;;;33.30;92.20;;;;;;5047944;28;20044;-69
2022/06/23 14:33:09;;;;;;;20.90;6.75;;;33.60;91.30;;;;;;5049427;28;20502;-68
2022/06/23 14:36:20;;;;;;;31.48;7.25;;;34.00;90.40;;;;;;5050737;28;20044;-69
2022/06/23 14:39:47;;;;;;;23.50;6.22;;;34.40;90.20;;;;;;5046199;28;20047;-69
2022/06/23 14:43:47;;;;;;;23.13;5.75;;;34.10;90.00;;;;;;5049909;28;20040;-69
2022/06/23 14:46:57;;;;;;;23.80;6.18;;;33.70;88.60;;;;;;4978549;28;20525;-70
2022/06/23 14:50:19;;;;;;;30.58;6.68;;;33.40;89.40;;;;;;4981233;28;20059;-69
2022/06/23 14:53:29;;;;;;;27.85;6.20;;;33.30;90.20;;;;;;5053377;28;20486;-70
2022/06/23 14:56:42;;;;;;;31.20;7.05;;;33.50;90.60;;;;;;5051988;28;20044;-70
2022/06/23 14:59:52;;;;;;;22.85;6.22;;;33.10;90.10;;;;;;5048479;28;20059;-68
2022/06/23 15:03:28;;;;;;;22.25;6.13;;;32.70;90.50;;;;;;5048551;28;20058;-68
2022/06/23 15:06:45;;;;;;;22.75;6.00;;;32.30;90.70;;;;;;5049953;28;20087;-69
2022/06/23 15:10:13;;;;;;;32.15;6.47;;;32.00;91.50;;;;;;5037785;28;20040;-68
2022/06/23 15:13:24;;;;;;;34.13;7.35;;;31.50;91.50;;;;;;5052713;28;20032;-68
2022/06/23 15:16:53;;;;;;;24.65;6.45;;;31.10;91.40;;;;;;5052446;28;20048;-68
2022/06/23 15:20:08;;;;;;;24.20;6.60;;;31.10;91.80;;;;;;5052371;28;20051;-70
2022/06/23 15:23:35;;;;;;;32.95;6.43;;;31.50;91.70;;;;;;5051202;28;20044;-68
2022/06/23 15:26:45;;;;;;;21.42;6.05;;;32.30;91.20;;;;;;5051341;28;20036;-69
2022/06/23 15:30:32;;;;;;;27.90;6.82;;;32.90;90.40;;;;;;5052388;28;20040;-68
2022/06/23 15:34:00;;;;;;;19.90;6.30;;;33.20;89.50;;;;;;5041756;28;20507;-68
2022/06/23 15:37:40;;;;;;;28.33;6.40;;;33.50;89.50;;;;;;5051305;28;20667;-68
2022/06/23 15:41:02;;;;;;;21.92;5.82;;;33.40;89.10;;;;;;5051944;28;20044;-69
2022/06/23 15:44:17;;;;;;;24.85;6.63;;;33.30;89.50;;;;;;5049704;28;20040;-70
2022/06/23 15:47:30;;;;;;;19.88;5.60;;;32.60;89.80;;;;;;5051532;28;20048;-67
2022/06/23 15:50:52;;;;;;;25.02;6.20;;;31.50;91.10;;;;;;5052367;28;20048;-68
2022/06/23 15:54:28;;;;;;;22.88;5.97;;;32.00;90.50;;;;;;5052907;28;20048;-68
2022/06/23 15:57:43;;;;;;;55.17;8.18;;;32.60;90.00;;;;;;5052861;28;20048;-69
2022/06/23 16:00:59;;;;;;;39.83;6.90;;;33.10;89.10;;;;;;5052169;28;20047;-68
2022/06/23 16:04:16;;;;;;;41.13;6.32;;;33.50;88.20;;;;;;5052163;28;20506;-68
2022/06/23 16:07:24;;;;;;;26.35;5.97;;;33.40;87.90;;;;;;5050791;28;20052;-68
2022/06/23 16:10:42;;;;;;;25.80;5.65;;;33.30;88.70;;;;;;5051757;28;20048;-68
2022/06/23 16:13:55;;;;;;;27.35;6.57;;;33.10;88.10;;;;;;5051060;28;20376;-68
2022/06/23 16:17:02;;;;;;;25.88;7.85;;;32.40;90.00;;;;;;5053951;28;20119;-68
2022/06/23 16:20:16;;;;;;;19.88;5.95;;;31.50;90.70;;;;;;5052066;28;20055;-68
2022/06/23 16:23:30;;;;;;;26.65;6.18;;;31.60;90.90;;;;;;5051506;28;20043;-68
2022/06/23 16:26:53;;;;;;;24.10;6.07;;;31.30;90.60;;;;;;5050879;28;20043;-68
2022/06/23 16:30:00;;;;;;;21.20;6.38;;;31.10;91.00;;;;;;5051204;28;20450;-68
2022/06/23 16:33:33;;;;;;;22.33;5.47;;;31.20;91.30;;;;;;5051070;28;20048;-68
2022/06/23 16:37:02;;;;;;;23.85;6.07;;;31.40;91.10;;;;;;5051257;28;20044;-69
2022/06/23 16:40:09;;;;;;;26.67;5.35;;;31.60;90.90;;;;;;5035748;28;20044;-69
2022/06/23 16:43:15;;;;;;;27.55;5.97;;;31.70;91.10;;;;;;5051108;28;20402;-68
2022/06/23 16:46:35;;;;;;;27.27;6.15;;;31.90;91.00;;;;;;5050701;28;20404;-68
2022/06/23 16:50:14;;;;;;;22.10;5.85;;;32.10;90.90;;;;;;5050852;28;20036;-68
2022/06/23 16:53:40;;;;;;;23.67;5.95;;;31.50;90.70;;;;;;5051101;28;20044;-69
2022/06/23 16:56:50;;;;;;;22.55;5.45;;;31.20;90.90;;;;;;5050055;28;20048;-68
2022/06/23 17:00:09;;;;;;;32.35;6.82;;;31.30;91.10;;;;;;5051116;28;20048;-68
2022/06/23 17:03:19;;;;;;;29.75;5.88;;;31.30;91.30;;;;;;5050734;28;20048;-69
2022/06/23 17:06:27;;;;;;;28.67;6.80;;;31.30;91.30;;;;;;5049918;28;20499;-68
2022/06/23 17:09:53;;;;;;;29.70;6.18;;;31.50;91.30;;;;;;5050454;28;20043;-69